createdAt,value
2023-02-02T00:00:58.039Z,98422.22
2023-02-02T00:03:02.606Z,98443.75
2023-02-02T00:05:07.313Z,98442.88
2023-02-02T00:07:19.011Z,98428.25
2023-02-02T00:09:28.133Z,98442.97
2023-02-02T00:11:32.697Z,98438.66
2023-02-02T00:13:37.242Z,98433.50
2023-02-02T00:15:42.168Z,98417.22
2023-02-02T00:17:46.722Z,98429.28
2023-02-02T00:19:51.388Z,98414.63
2023-02-02T00:21:56.089Z,98415.44
2023-02-02T00:24:00.641Z,98422.34
2023-02-02T00:26:05.188Z,98406.91
2023-02-02T00:28:09.708Z,98394.78
2023-02-02T00:30:15.243Z,98411.09
2023-02-02T00:32:19.767Z,98399.88
2023-02-02T00:34:25.937Z,98406.66
2023-02-02T00:36:30.696Z,98416.16
2023-02-02T00:38:35.403Z,98417.06
2023-02-02T00:40:42.572Z,98421.38
2023-02-02T00:42:50.513Z,98423.03
2023-02-02T00:45:07.501Z,98413.56
2023-02-02T00:47:12.086Z,98409.31
2023-02-02T00:49:16.940Z,98427.38
2023-02-02T00:51:21.483Z,98440.34
2023-02-02T00:53:26.144Z,98421.63
2023-02-02T00:55:30.745Z,98414.69
2023-02-02T00:57:37.925Z,98429.41
2023-02-02T00:59:45.229Z,98420.03
2023-02-02T01:01:50.016Z,98436.50
2023-02-02T01:03:59.160Z,98439.06
2023-02-02T01:06:03.762Z,98438.34
2023-02-02T01:08:08.852Z,98468.31
2023-02-02T01:10:14.972Z,98470.84
2023-02-02T01:12:20.612Z,98472.56
2023-02-02T01:14:27.943Z,98473.41
2023-02-02T01:16:33.749Z,98486.25
2023-02-02T01:18:40.269Z,98473.25
2023-02-02T01:20:47.360Z,98489.66
2023-02-02T01:22:53.173Z,98506.00
2023-02-02T01:24:57.737Z,98501.53
2023-02-02T01:27:02.692Z,98499.63
2023-02-02T01:29:10.964Z,98484.34
2023-02-02T01:31:19.088Z,98520.16
2023-02-02T01:33:24.109Z,98511.63
2023-02-02T01:35:32.722Z,98492.00
2023-02-02T01:37:37.291Z,98535.16
2023-02-02T01:39:41.897Z,98508.03
2023-02-02T01:41:46.445Z,98526.03
2023-02-02T01:43:59.506Z,98535.47
2023-02-02T01:46:04.560Z,98551.81
2023-02-02T01:48:11.797Z,98538.38
2023-02-02T01:50:17.969Z,98568.72
2023-02-02T01:52:25.475Z,98569.72
2023-02-02T01:54:32.977Z,98568.78
2023-02-02T01:56:44.269Z,98573.03
2023-02-02T01:58:51.217Z,98570.47
2023-02-02T02:00:56.685Z,98558.63
2023-02-02T02:03:03.548Z,98589.75
2023-02-02T02:05:12.454Z,98569.22
2023-02-02T02:07:18.132Z,98559.91
2023-02-02T02:09:22.852Z,98568.56
2023-02-02T02:11:27.624Z,98570.41
2023-02-02T02:13:45.073Z,98620.34
2023-02-02T02:16:04.399Z,98629.88
2023-02-02T02:18:15.569Z,98634.22
2023-02-02T02:20:47.455Z,98615.38
2023-02-02T02:23:14.603Z,98637.66
2023-02-02T02:25:45.293Z,98629.09
2023-02-02T02:28:01.226Z,98640.25
2023-02-02T02:30:23.627Z,98617.97
2023-02-02T02:32:36.285Z,98632.47
2023-02-02T02:34:46.988Z,98637.56
2023-02-02T02:36:53.962Z,98624.66
2023-02-02T02:39:02.914Z,98634.13
2023-02-02T02:41:11.764Z,98637.50
2023-02-02T02:43:19.233Z,98628.03
2023-02-02T02:45:25.049Z,98636.66
2023-02-02T02:47:33.157Z,98641.84
2023-02-02T02:49:44.862Z,98647.06
2023-02-02T02:51:51.512Z,98644.50
2023-02-02T02:54:00.837Z,98646.22
2023-02-02T02:56:10.942Z,98648.78
2023-02-02T02:58:16.510Z,98642.75
2023-02-02T03:00:33.654Z,98647.00
2023-02-02T03:02:45.201Z,98648.72
2023-02-02T03:04:54.445Z,98643.63
2023-02-02T03:07:02.516Z,98653.06
2023-02-02T03:09:09.359Z,98656.50
2023-02-02T03:11:15.382Z,98650.47
2023-02-02T03:13:20.366Z,98654.78
2023-02-02T03:15:25.656Z,98655.63
2023-02-02T03:17:30.616Z,98658.19
2023-02-02T03:19:37.818Z,98660.72
2023-02-02T03:21:42.391Z,98655.59
2023-02-02T03:23:47.006Z,98663.31
2023-02-02T03:25:51.700Z,98671.03
2023-02-02T03:27:56.378Z,98671.03
2023-02-02T03:30:01.566Z,98666.75
2023-02-02T03:32:06.205Z,98662.44
2023-02-02T03:34:10.780Z,98665.88
2023-02-02T03:36:18.004Z,98664.16
2023-02-02T03:38:22.565Z,98664.19
2023-02-02T03:40:27.218Z,98677.88
2023-02-02T03:42:31.789Z,98666.72
2023-02-02T03:44:36.418Z,98665.88
2023-02-02T03:46:40.996Z,98659.88
2023-02-02T03:48:45.600Z,98652.13
2023-02-02T03:50:50.209Z,98647.88
2023-02-02T03:52:57.788Z,98653.81
2023-02-02T03:55:02.513Z,98654.69
2023-02-02T03:57:07.121Z,98648.66
2023-02-02T03:59:11.681Z,98642.69
2023-02-02T04:01:16.679Z,98649.53
2023-02-02T04:03:21.252Z,98643.50
2023-02-02T04:05:26.207Z,98645.28
2023-02-02T04:07:30.972Z,98648.69
2023-02-02T04:09:38.240Z,98654.63
2023-02-02T04:11:42.788Z,98640.03
2023-02-02T04:13:47.470Z,98633.16
2023-02-02T04:15:58.848Z,98633.09
2023-02-02T04:18:03.472Z,98618.56
2023-02-02T04:20:08.799Z,98611.66
2023-02-02T04:22:13.377Z,98613.38
2023-02-02T04:24:18.148Z,98622.72
2023-02-02T04:26:25.775Z,98621.81
2023-02-02T04:28:30.784Z,98614.94
2023-02-02T04:30:35.447Z,98621.69
2023-02-02T04:32:40.081Z,98611.44
2023-02-02T04:34:44.659Z,98626.00
2023-02-02T04:36:49.225Z,98622.56
2023-02-02T04:38:54.024Z,98621.69
2023-02-02T04:40:58.549Z,98625.94
2023-02-02T04:43:05.803Z,98639.59
2023-02-02T04:45:10.921Z,98638.63
2023-02-02T04:47:15.564Z,98649.72
2023-02-02T04:49:20.098Z,98655.69
2023-02-02T04:51:24.651Z,98664.34
2023-02-02T04:53:29.211Z,98670.47
2023-02-02T04:55:33.860Z,98668.91
2023-02-02T04:57:38.638Z,98662.19
2023-02-02T04:59:45.745Z,98646.78
2023-02-02T05:01:51.096Z,98682.81
2023-02-02T05:03:55.655Z,98667.41
2023-02-02T05:06:06.930Z,98682.78
2023-02-02T05:08:12.191Z,98681.09
2023-02-02T05:10:16.860Z,98698.19
2023-02-02T05:12:21.451Z,98704.13
2023-02-02T05:14:26.004Z,98700.63
2023-02-02T05:16:33.187Z,98699.00
2023-02-02T05:18:37.792Z,98705.94
2023-02-02T05:20:42.396Z,98705.06
2023-02-02T05:22:46.965Z,98698.22
2023-02-02T05:24:51.560Z,98708.47
2023-02-02T05:26:58.759Z,98695.59
2023-02-02T05:29:03.586Z,98700.75
2023-02-02T05:31:08.696Z,98699.03
2023-02-02T05:33:15.846Z,98702.50
2023-02-02T05:35:20.531Z,98700.81
2023-02-02T05:37:25.242Z,98697.38
2023-02-02T05:39:29.816Z,98709.41
2023-02-02T05:41:34.393Z,98712.84
2023-02-02T05:43:39.074Z,98700.84
2023-02-02T05:45:43.619Z,98713.69
2023-02-02T05:47:48.478Z,98713.72
2023-02-02T05:49:56.899Z,98712.84
2023-02-02T05:52:01.890Z,98717.16
2023-02-02T05:54:06.579Z,98728.31
2023-02-02T05:56:11.171Z,98725.75
2023-02-02T05:58:18.695Z,98723.19
2023-02-02T06:00:23.698Z,98720.63
2023-02-02T06:02:28.713Z,98735.16
2023-02-02T06:04:33.278Z,98736.06
2023-02-02T06:06:45.787Z,98738.63
2023-02-02T06:08:52.017Z,98736.91
2023-02-02T06:10:56.891Z,98731.78
2023-02-02T06:13:01.404Z,98736.09
2023-02-02T06:15:06.288Z,98738.66
2023-02-02T06:17:10.821Z,98742.88
2023-02-02T06:19:15.428Z,98747.97
2023-02-02T06:21:20.129Z,98753.94
2023-02-02T06:23:27.371Z,98741.00
2023-02-02T06:25:32.087Z,98744.41
2023-02-02T06:27:36.647Z,98745.28
2023-02-02T06:29:41.180Z,98750.38
2023-02-02T06:31:45.963Z,98747.81
2023-02-02T06:33:50.723Z,98757.19
2023-02-02T06:35:55.357Z,98741.78
2023-02-02T06:38:00.814Z,98749.47
2023-02-02T06:40:08.541Z,98736.59
2023-02-02T06:42:21.227Z,98747.78
2023-02-02T06:44:26.102Z,98743.50
2023-02-02T06:46:30.730Z,98748.69
2023-02-02T06:48:35.370Z,98744.38
2023-02-02T06:50:40.330Z,98751.25
2023-02-02T06:52:50.033Z,98747.00
2023-02-02T06:54:54.599Z,98748.66
2023-02-02T06:57:01.755Z,98751.19
2023-02-02T06:59:06.492Z,98748.69
2023-02-02T07:01:12.449Z,98756.41
2023-02-02T07:03:17.587Z,98759.84
2023-02-02T07:05:24.412Z,98761.56
2023-02-02T07:07:30.057Z,98762.38
2023-02-02T07:09:35.050Z,98758.97
2023-02-02T07:11:41.360Z,98756.38
2023-02-02T07:13:52.893Z,98756.41
2023-02-02T07:15:58.336Z,98762.44
2023-02-02T07:18:02.960Z,98777.88
2023-02-02T07:20:08.036Z,98772.72
2023-02-02T07:22:12.606Z,98763.28
2023-02-02T07:24:17.259Z,98769.28
2023-02-02T07:26:22.223Z,98764.97
2023-02-02T07:28:26.814Z,98780.34
2023-02-02T07:30:34.031Z,98778.69
2023-02-02T07:32:38.625Z,98778.63
2023-02-02T07:34:44.304Z,98776.03
2023-02-02T07:36:48.872Z,98767.41
2023-02-02T07:38:54.654Z,98768.22
2023-02-02T07:40:59.381Z,98762.22
2023-02-02T07:43:05.038Z,98760.50
2023-02-02T07:45:27.095Z,98761.34
2023-02-02T07:47:37.014Z,98753.56
2023-02-02T07:49:41.591Z,98759.50
2023-02-02T07:51:49.225Z,98751.72
2023-02-02T07:53:55.337Z,98743.97
2023-02-02T07:56:08.101Z,98748.22
2023-02-02T07:58:13.013Z,98747.34
2023-02-02T08:00:17.916Z,98750.69
2023-02-02T08:02:22.491Z,98751.53
2023-02-02T08:04:30.349Z,98763.41
2023-02-02T08:06:35.858Z,98764.22
2023-02-02T08:08:40.392Z,98743.56
2023-02-02T08:10:50.379Z,98746.13
2023-02-02T08:12:54.962Z,98752.94
2023-02-02T08:14:59.498Z,98743.47
2023-02-02T08:17:04.175Z,98749.47
2023-02-02T08:19:08.769Z,98743.50
2023-02-02T08:21:16.195Z,98733.25
2023-02-02T08:23:23.792Z,98745.31
2023-02-02T08:25:28.513Z,98749.72
2023-02-02T08:27:33.220Z,98754.00
2023-02-02T08:29:38.216Z,98750.53
2023-02-02T08:31:44.362Z,98754.91
2023-02-02T08:33:48.972Z,98754.03
2023-02-02T08:35:53.645Z,98752.34
2023-02-02T08:38:03.132Z,98748.94
2023-02-02T08:40:08.406Z,98756.59
2023-02-02T08:42:13.246Z,98753.16
2023-02-02T08:44:19.646Z,98749.81
2023-02-02T08:46:24.487Z,98754.94
2023-02-02T08:48:29.148Z,98754.97
2023-02-02T08:50:33.897Z,98755.84
2023-02-02T08:52:38.523Z,98757.63
2023-02-02T08:54:46.151Z,98758.50
2023-02-02T08:56:50.721Z,98762.78
2023-02-02T08:58:56.119Z,98761.91
2023-02-02T09:01:06.655Z,98762.00
2023-02-02T09:03:11.242Z,98765.50
2023-02-02T09:05:15.809Z,98759.50
2023-02-02T09:07:21.296Z,98760.34
2023-02-02T09:09:25.975Z,98762.91
2023-02-02T09:11:33.242Z,98768.06
2023-02-02T09:13:38.241Z,98763.00
2023-02-02T09:15:42.796Z,98768.97
2023-02-02T09:17:47.387Z,98755.22
2023-02-02T09:19:51.916Z,98769.84
2023-02-02T09:21:56.489Z,98758.63
2023-02-02T09:24:01.166Z,98756.00
2023-02-02T09:26:15.667Z,98763.78
2023-02-02T09:28:22.816Z,98757.81
2023-02-02T09:30:27.390Z,98764.69
2023-02-02T09:32:32.001Z,98758.69
2023-02-02T09:34:36.648Z,98763.84
2023-02-02T09:36:41.784Z,98760.44
2023-02-02T09:38:46.533Z,98760.41
2023-02-02T09:40:51.204Z,98762.91
2023-02-02T09:43:00.907Z,98758.63
2023-02-02T09:45:10.708Z,98764.66
2023-02-02T09:47:19.522Z,98761.22
2023-02-02T09:49:26.408Z,98774.06
2023-02-02T09:51:33.200Z,98775.75
2023-02-02T09:53:54.650Z,98776.53
2023-02-02T09:56:02.584Z,98767.88
2023-02-02T09:58:10.955Z,98777.28
2023-02-02T10:00:26.740Z,98773.78
2023-02-02T10:02:34.955Z,98771.13
2023-02-02T10:04:41.190Z,98769.41
2023-02-02T10:06:47.435Z,98779.66
2023-02-02T10:08:55.971Z,98778.78
2023-02-02T10:11:00.678Z,98771.81
2023-02-02T10:13:08.551Z,98778.63
2023-02-02T10:15:18.806Z,98775.25
2023-02-02T10:17:38.754Z,98781.19
2023-02-02T10:19:43.838Z,98789.63
2023-02-02T10:21:51.746Z,98789.44
2023-02-02T10:23:58.873Z,98787.56
2023-02-02T10:26:07.259Z,98789.19
2023-02-02T10:28:19.658Z,98785.63
2023-02-02T10:30:28.343Z,98781.22
2023-02-02T10:32:38.687Z,98786.22
2023-02-02T10:34:44.466Z,98772.38
2023-02-02T10:36:53.515Z,98773.25
2023-02-02T10:39:03.158Z,98776.56
2023-02-02T10:41:15.424Z,98772.25
2023-02-02T10:43:46.197Z,98770.41
2023-02-02T10:45:52.143Z,98767.84
2023-02-02T10:47:59.434Z,98776.34
2023-02-02T10:50:06.261Z,98768.56
2023-02-02T10:52:18.042Z,98759.03
2023-02-02T10:54:55.468Z,98763.28
2023-02-02T10:57:03.451Z,98761.56
2023-02-02T10:59:09.660Z,98756.34
2023-02-02T11:01:18.295Z,98756.34
2023-02-02T11:03:29.148Z,98756.16
2023-02-02T11:05:46.683Z,98750.09
2023-02-02T11:07:52.459Z,98756.97
2023-02-02T11:09:57.345Z,98740.63
2023-02-02T11:12:06.606Z,98750.81
2023-02-02T11:14:16.079Z,98749.94
2023-02-02T11:16:32.573Z,98748.06
2023-02-02T11:18:46.794Z,98752.44
2023-02-02T11:20:51.483Z,98752.44
2023-02-02T11:23:03.426Z,98748.97
2023-02-02T11:25:09.009Z,98750.81
2023-02-02T11:27:16.734Z,98754.25
2023-02-02T11:29:22.304Z,98751.59
2023-02-02T11:31:34.228Z,98757.63
2023-02-02T11:33:39.337Z,98747.28
2023-02-02T11:35:55.164Z,98762.78
2023-02-02T11:38:11.014Z,98762.78
2023-02-02T11:40:29.516Z,98761.22
2023-02-02T11:42:34.162Z,98763.00
2023-02-02T11:44:41.478Z,98774.22
2023-02-02T11:46:46.660Z,98777.63
2023-02-02T11:48:52.947Z,98770.75
2023-02-02T11:51:01.404Z,98777.66
2023-02-02T11:53:06.968Z,98771.59
2023-02-02T11:55:17.465Z,98768.91
2023-02-02T11:57:23.580Z,98763.84
2023-02-02T11:59:30.691Z,98761.16
2023-02-02T12:01:36.559Z,98762.78
2023-02-02T12:03:41.811Z,98783.47
2023-02-02T12:05:50.076Z,98768.91
2023-02-02T12:07:57.253Z,98767.97
2023-02-02T12:10:03.548Z,98773.97
2023-02-02T12:12:12.649Z,98772.41
2023-02-02T12:14:27.174Z,98777.59
2023-02-02T12:16:41.487Z,98769.88
2023-02-02T12:18:50.558Z,98780.94
2023-02-02T12:21:00.389Z,98775.78
2023-02-02T12:23:25.801Z,98774.03
2023-02-02T12:25:40.857Z,98765.44
2023-02-02T12:27:50.648Z,98761.09
2023-02-02T12:30:01.340Z,98765.28
2023-02-02T12:32:19.092Z,98776.50
2023-02-02T12:34:28.206Z,98780.84
2023-02-02T12:36:39.631Z,98789.44
2023-02-02T12:38:57.896Z,98782.44
2023-02-02T12:41:13.401Z,98789.31
2023-02-02T12:43:26.376Z,98787.47
2023-02-02T12:45:45.686Z,98783.22
2023-02-02T12:47:54.593Z,98797.91
2023-02-02T12:50:07.057Z,98788.38
2023-02-02T12:52:19.196Z,98782.41
2023-02-02T12:54:47.813Z,98788.38
2023-02-02T12:57:01.716Z,98785.78
2023-02-02T12:59:14.378Z,98809.75
2023-02-02T13:01:31.525Z,98791.66
2023-02-02T13:03:41.904Z,98796.94
2023-02-02T13:05:54.804Z,98797.03
2023-02-02T13:08:01.826Z,98809.97
2023-02-02T13:10:14.782Z,98808.13
2023-02-02T13:12:24.129Z,98808.97
2023-02-02T13:14:30.404Z,98816.88
2023-02-02T13:16:36.369Z,98816.81
2023-02-02T13:18:42.642Z,98810.84
2023-02-02T13:20:50.690Z,98809.13
2023-02-02T13:22:59.238Z,98809.13
2023-02-02T13:25:05.050Z,98811.84
2023-02-02T13:27:13.078Z,98808.34
2023-02-02T13:29:25.810Z,98816.13
2023-02-02T13:31:33.198Z,98817.81
2023-02-02T13:33:39.182Z,98818.72
2023-02-02T13:35:49.435Z,98831.66
2023-02-02T13:37:57.329Z,98828.22
2023-02-02T13:40:03.941Z,98834.28
2023-02-02T13:42:17.013Z,98825.63
2023-02-02T13:44:29.134Z,98830.78
2023-02-02T13:46:37.923Z,98835.03
2023-02-02T13:48:49.837Z,98838.41
2023-02-02T13:51:05.918Z,98838.41
2023-02-02T13:53:17.781Z,98847.09
2023-02-02T13:55:36.873Z,98851.28
2023-02-02T13:57:57.127Z,98845.38
2023-02-02T14:00:15.232Z,98860.00
2023-02-02T14:02:25.022Z,98866.81
2023-02-02T14:04:30.770Z,98860.00
2023-02-02T14:06:54.269Z,98865.22
2023-02-02T14:09:00.184Z,98868.69
2023-02-02T14:11:06.047Z,98875.66
2023-02-02T14:13:31.806Z,98876.50
2023-02-02T14:15:44.011Z,98873.06
2023-02-02T14:17:57.891Z,98884.28
2023-02-02T14:20:03.627Z,98887.88
2023-02-02T14:22:19.439Z,98888.59
2023-02-02T14:24:42.024Z,98885.91
2023-02-02T14:26:47.558Z,98899.63
2023-02-02T14:28:53.651Z,98896.28
2023-02-02T14:31:13.195Z,98899.84
2023-02-02T14:33:47.775Z,98899.75
2023-02-02T14:36:06.360Z,98899.84
2023-02-02T14:38:13.680Z,98895.56
2023-02-02T14:40:36.648Z,98894.72
2023-02-02T14:43:01.136Z,98903.34
2023-02-02T14:45:25.610Z,98906.75
2023-02-02T14:47:45.436Z,98919.78
2023-02-02T14:49:50.153Z,98918.00
2023-02-02T14:51:58.607Z,98942.94
2023-02-02T14:54:04.639Z,98942.91
2023-02-02T14:56:11.457Z,98931.72
2023-02-02T14:58:24.390Z,98919.88
2023-02-02T15:00:31.354Z,98922.75
2023-02-02T15:02:37.776Z,98935.50
2023-02-02T15:04:42.429Z,98936.31
2023-02-02T15:06:47.296Z,98933.88
2023-02-02T15:09:06.720Z,98951.19
2023-02-02T15:11:26.635Z,98948.69
2023-02-02T15:13:37.730Z,98953.06
2023-02-02T15:15:44.136Z,98959.09
2023-02-02T15:17:59.382Z,98951.53
2023-02-02T15:20:10.802Z,98953.34
2023-02-02T15:22:24.356Z,98962.06
2023-02-02T15:24:29.956Z,98962.16
2023-02-02T15:26:38.584Z,98978.63
2023-02-02T15:28:46.176Z,98980.41
2023-02-02T15:30:53.315Z,98977.94
2023-02-02T15:32:59.320Z,98984.88
2023-02-02T15:35:05.852Z,99001.25
2023-02-02T15:37:14.476Z,99009.03
2023-02-02T15:39:24.767Z,99023.59
2023-02-02T15:41:33.010Z,99018.47
2023-02-02T15:43:41.348Z,99025.34
2023-02-02T15:45:48.193Z,99027.97
2023-02-02T15:47:52.975Z,99033.13
2023-02-02T15:49:59.576Z,99034.81
2023-02-02T15:52:06.329Z,99038.19
2023-02-02T15:54:23.617Z,99040.78
2023-02-02T15:56:32.668Z,99052.03
2023-02-02T15:58:42.266Z,99042.50
2023-02-02T16:00:46.851Z,99051.13
2023-02-02T16:02:53.828Z,99058.78
2023-02-02T16:04:58.453Z,99053.59
2023-02-02T16:07:03.604Z,99060.47
2023-02-02T16:09:08.950Z,99062.22
2023-02-02T16:11:14.673Z,99074.22
2023-02-02T16:13:26.778Z,99061.28
2023-02-02T16:15:34.594Z,99068.16
2023-02-02T16:17:39.615Z,99072.44
2023-02-02T16:19:45.143Z,99066.38
2023-02-02T16:21:51.833Z,99065.56
2023-02-02T16:23:57.394Z,99074.19
2023-02-02T16:26:03.406Z,99081.91
2023-02-02T16:28:08.396Z,99086.25
2023-02-02T16:30:30.679Z,99093.94
2023-02-02T16:32:42.093Z,99092.19
2023-02-02T16:34:48.965Z,99094.72
2023-02-02T16:37:08.696Z,99086.13
2023-02-02T16:39:26.325Z,99096.47
2023-02-02T16:41:33.044Z,99096.47
2023-02-02T16:43:38.496Z,99107.69
2023-02-02T16:45:47.772Z,99106.00
2023-02-02T16:47:55.127Z,99116.28
2023-02-02T16:50:19.442Z,99121.41
2023-02-02T16:52:24.837Z,99120.59
2023-02-02T16:54:29.464Z,99127.44
2023-02-02T16:56:36.440Z,99132.63
2023-02-02T16:58:42.515Z,99136.91
2023-02-02T17:01:02.133Z,99141.22
2023-02-02T17:03:13.478Z,99136.00
2023-02-02T17:05:21.993Z,99135.16
2023-02-02T17:07:26.908Z,99145.44
2023-02-02T17:09:36.489Z,99141.16
2023-02-02T17:11:41.317Z,99148.06
2023-02-02T17:13:46.079Z,99162.75
2023-02-02T17:15:56.765Z,99164.47
2023-02-02T17:18:01.371Z,99165.28
2023-02-02T17:20:10.759Z,99167.81
2023-02-02T17:22:15.387Z,99166.09
2023-02-02T17:24:20.034Z,99177.28
2023-02-02T17:26:24.764Z,99165.19
2023-02-02T17:28:29.946Z,99170.34
2023-02-02T17:30:34.643Z,99168.59
2023-02-02T17:32:39.295Z,99177.19
2023-02-02T17:34:45.347Z,99165.13
2023-02-02T17:36:54.827Z,99181.44
2023-02-02T17:38:59.788Z,99184.03
2023-02-02T17:41:05.458Z,99189.19
2023-02-02T17:43:14.124Z,99184.88
2023-02-02T17:45:20.415Z,99187.44
2023-02-02T17:47:24.945Z,99184.84
2023-02-02T17:49:29.574Z,99189.16
2023-02-02T17:51:41.187Z,99194.31
2023-02-02T17:53:48.845Z,99197.72
2023-02-02T17:55:53.559Z,99198.56
2023-02-02T17:57:58.323Z,99194.28
2023-02-02T18:00:02.906Z,99197.75
2023-02-02T18:02:09.231Z,99199.47
2023-02-02T18:04:15.810Z,99195.16
2023-02-02T18:06:20.350Z,99202.88
2023-02-02T18:08:24.887Z,99204.59
2023-02-02T18:10:32.771Z,99204.63
2023-02-02T18:12:37.333Z,99194.31
2023-02-02T18:14:42.039Z,99201.22
2023-02-02T18:16:47.078Z,99207.25
2023-02-02T18:18:51.681Z,99203.78
2023-02-02T18:20:56.256Z,99202.09
2023-02-02T18:23:00.875Z,99209.91
2023-02-02T18:25:05.420Z,99204.72
2023-02-02T18:27:12.593Z,99212.50
2023-02-02T18:29:17.176Z,99208.22
2023-02-02T18:31:24.040Z,99223.66
2023-02-02T18:33:28.776Z,99240.03
2023-02-02T18:35:33.426Z,99229.69
2023-02-02T18:37:38.238Z,99221.91
2023-02-02T18:39:42.820Z,99222.78
2023-02-02T18:41:47.425Z,99215.88
2023-02-02T18:43:56.381Z,99213.25
2023-02-02T18:46:02.018Z,99211.53
2023-02-02T18:48:06.759Z,99215.81
2023-02-02T18:50:11.932Z,99220.94
2023-02-02T18:52:16.601Z,99215.81
2023-02-02T18:54:21.206Z,99231.34
2023-02-02T18:56:25.875Z,99222.72
2023-02-02T18:58:30.423Z,99231.31
2023-02-02T19:00:37.689Z,99222.72
2023-02-02T19:02:42.332Z,99223.56
2023-02-02T19:05:07.581Z,99226.13
2023-02-02T19:07:36.676Z,99229.56
2023-02-02T19:09:41.249Z,99237.31
2023-02-02T19:11:46.696Z,99244.22
2023-02-02T19:13:51.517Z,99238.25
2023-02-02T19:16:00.166Z,99250.31
2023-02-02T19:18:06.048Z,99239.13
2023-02-02T19:20:21.994Z,99239.97
2023-02-02T19:22:31.216Z,99244.22
2023-02-02T19:24:37.701Z,99241.66
2023-02-02T19:26:43.842Z,99242.56
2023-02-02T19:28:48.475Z,99238.25
2023-02-02T19:30:54.681Z,99242.53
2023-02-02T19:33:01.923Z,99237.34
2023-02-02T19:35:10.142Z,99239.09
2023-02-02T19:37:23.104Z,99241.69
2023-02-02T19:39:30.884Z,99236.50
2023-02-02T19:41:35.434Z,99243.41
2023-02-02T19:43:42.676Z,99239.06
2023-02-02T19:45:47.915Z,99232.13
2023-02-02T19:47:53.931Z,99232.97
2023-02-02T19:50:01.701Z,99233.84
2023-02-02T19:52:08.201Z,99236.44
2023-02-02T19:54:28.020Z,99234.66
2023-02-02T19:56:36.396Z,99249.28
2023-02-02T19:59:42.822Z,99256.97
2023-02-02T20:01:50.767Z,99262.97
2023-02-02T20:03:55.635Z,99262.03
2023-02-02T20:06:01.154Z,99255.09
2023-02-02T20:08:11.341Z,99249.84
2023-02-02T20:10:24.150Z,99246.41
2023-02-02T20:12:34.523Z,99247.28
2023-02-02T20:14:42.083Z,99264.50
2023-02-02T20:16:51.494Z,99254.16
2023-02-02T20:18:59.603Z,99260.28
2023-02-02T20:21:08.128Z,99254.25
2023-02-02T20:23:28.093Z,99249.09
2023-02-02T20:25:34.038Z,99263.78
2023-02-02T20:27:40.762Z,99262.94
2023-02-02T20:29:50.660Z,99258.63
2023-02-02T20:31:57.590Z,99261.19
2023-02-02T20:34:02.652Z,99256.81
2023-02-02T20:36:38.317Z,99253.38
2023-02-02T20:38:43.195Z,99262.88
2023-02-02T20:40:48.302Z,99263.72
2023-02-02T20:42:53.644Z,99249.91
2023-02-02T20:45:01.234Z,99250.72
2023-02-02T20:47:07.986Z,99261.13
2023-02-02T20:49:13.271Z,99249.94
2023-02-02T20:51:18.560Z,99250.03
2023-02-02T20:53:23.423Z,99266.34
2023-02-02T20:55:28.754Z,99243.09
2023-02-02T20:57:33.812Z,99257.78
2023-02-02T20:59:40.883Z,99264.63
2023-02-02T21:01:49.875Z,99256.03
2023-02-02T21:03:55.153Z,99257.69
2023-02-02T21:06:00.142Z,99261.22
2023-02-02T21:08:05.415Z,99270.66
2023-02-02T21:10:10.820Z,99276.69
2023-02-02T21:12:15.687Z,99287.03
2023-02-02T21:14:20.504Z,99270.66
2023-02-02T21:16:25.512Z,99278.41
2023-02-02T21:18:32.912Z,99277.56
2023-02-02T21:20:37.791Z,99274.91
2023-02-02T21:22:42.684Z,99270.59
2023-02-02T21:24:47.515Z,99268.91
2023-02-02T21:26:53.941Z,99274.06
2023-02-02T21:28:59.994Z,99284.41
2023-02-02T21:31:04.952Z,99280.09
2023-02-02T21:33:10.052Z,99274.03
2023-02-02T21:35:17.780Z,99275.78
2023-02-02T21:37:22.731Z,99268.91
2023-02-02T21:39:31.647Z,99264.56
2023-02-02T21:41:37.170Z,99262.00
2023-02-02T21:43:42.193Z,99259.41
2023-02-02T21:45:51.859Z,99262.00
2023-02-02T21:47:58.849Z,99260.28
2023-02-02T21:50:16.730Z,99256.84
2023-02-02T21:52:24.317Z,99256.91
2023-02-02T21:54:31.319Z,99252.59
2023-02-02T21:56:41.683Z,99253.44
2023-02-02T21:58:47.699Z,99260.41
2023-02-02T22:00:52.955Z,99256.06
2023-02-02T22:02:58.989Z,99260.38
2023-02-02T22:05:18.386Z,99264.69
2023-02-02T22:07:25.856Z,99262.97
2023-02-02T22:09:39.799Z,99253.50
2023-02-02T22:11:49.461Z,99270.75
2023-02-02T22:13:56.775Z,99268.97
2023-02-02T22:16:01.763Z,99270.69
2023-02-02T22:18:16.059Z,99278.47
2023-02-02T22:20:36.030Z,99275.84
2023-02-02T22:22:47.526Z,99281.88
2023-02-02T22:25:00.597Z,99270.72
2023-02-02T22:27:05.498Z,99270.72
2023-02-02T22:29:17.985Z,99262.97
2023-02-02T22:31:22.925Z,99262.94
2023-02-02T22:33:28.601Z,99261.19
2023-02-02T22:35:33.415Z,99262.13
2023-02-02T22:37:38.348Z,99256.09
2023-02-02T22:39:48.480Z,99265.50
2023-02-02T22:41:53.429Z,99254.34
2023-02-02T22:43:58.242Z,99254.34
2023-02-02T22:46:03.146Z,99257.69
2023-02-02T22:48:08.581Z,99253.38
2023-02-02T22:50:14.150Z,99270.59
2023-02-02T22:52:18.994Z,99263.72
2023-02-02T22:54:23.937Z,99257.72
2023-02-02T22:56:32.168Z,99268.03
2023-02-02T22:58:37.158Z,99254.22
2023-02-02T23:00:42.013Z,99257.72
2023-02-02T23:02:47.160Z,99262.00
2023-02-02T23:04:51.950Z,99261.13
2023-02-02T23:06:56.891Z,99253.38
2023-02-02T23:09:01.710Z,99258.53
2023-02-02T23:11:06.630Z,99258.50
2023-02-02T23:13:14.110Z,99260.19
2023-02-02T23:15:19.437Z,99261.09
2023-02-02T23:17:23.988Z,99262.84
2023-02-02T23:19:28.853Z,99267.13
2023-02-02T23:21:33.721Z,99260.25
2023-02-02T23:23:38.610Z,99270.50
2023-02-02T23:25:46.392Z,99264.50
2023-02-02T23:27:51.302Z,99266.16
2023-02-02T23:29:58.800Z,99258.50
2023-02-02T23:32:03.767Z,99267.94
2023-02-02T23:34:08.681Z,99266.22
2023-02-02T23:36:13.693Z,99263.59
2023-02-02T23:38:18.480Z,99266.19
2023-02-02T23:40:23.605Z,99252.38
2023-02-02T23:42:28.476Z,99259.28
2023-02-02T23:44:33.333Z,99255.00
2023-02-02T23:46:42.431Z,99261.03
2023-02-02T23:48:47.911Z,99262.72
2023-02-02T23:50:52.724Z,99259.28
2023-02-02T23:52:57.918Z,99260.13
2023-02-02T23:55:03.072Z,99264.47
2023-02-02T23:57:08.059Z,99254.16
2023-02-02T23:59:13.029Z,99272.31
